Pagina principală
METAR-TAF:

METAR-TAF

Aeroporturi :

Aeroportul Internațional Iași

Iași, România

Latitudine: 47-10N, longitudine: 027-38E, elevație: 102 m

Observații meteo curente

Raportul a fost făcut în urmă cu 18 de minute, la 14:30 UTC
Vânt 12 kt de la Nord/Nord-vest
Temperatură 21°C
Umiditate 64%
Presiune 1011 hPa
Vizibilitate de 10 km sau mai mult
Nori puțini la o înălțime de 3500 picior

METAR: LRIA 151430Z 33012KT 9999 FEW035 21/14 Q1011

Ora: 17:48 (14:48 UTC)

Prognoză

Raportul a fost făcut în urmă cu 3 ore și 48 de minute, la 11:00 UTC
Prognoză valabilă de la 15 ora 12 UTC la 15 ora 21 UTC
Vânt 15 kt de la Nord-vest
Vizibilitate de 10 km sau mai mult
Nori fragmentați la o înălțime de 4000 picior
Devenind
de la 15 ora 16 UTC la 15 ora 18 UTC
Vânt 5 kt de la Nord/Nord-vest

TAF: LRIA 151100Z 1512/1521 32015KT 9999 BKN040 BECMG 1516/1518 33005KT

Observații și prognoze meteo pentru peste 4.000 de aeroporturi (rapoarte METAR și TAF).

Stațiile disponibile sunt reprezentate pe hartă prin puncte galbene și roșii.

Țineți indicatorul mouse-ului pe punctul dorit pentru a vedea denumirea stației.

Apoi, faceți clic pentru a vedea observațiile și prognozele meteorologice.

Pentru a schimba harta: Pentru mărire, faceți clic pe butoanele verzi cu cruce neagră; pentru micșorare, pe butonul verde cu o liniuță; pentru hărți învecinate, pe săgețile verzi.


METAR-TAF: